createdAt,value
2019-01-13T04:47:07.235Z,6.13
2019-01-13T04:49:48.844Z,6.33
2019-01-13T04:52:19.165Z,6.47
2019-01-13T04:55:08.621Z,6.07
2019-01-13T04:57:57.994Z,6.43
2019-01-13T05:00:39.911Z,6.00
2019-01-13T05:03:10.189Z,6.60
2019-01-13T05:05:52.191Z,6.63
2019-01-13T05:08:34.636Z,7.20
2019-01-13T05:11:16.444Z,6.77
2019-01-13T05:13:58.359Z,6.77
2019-01-13T05:16:40.410Z,6.93
2019-01-13T05:19:22.426Z,6.77
2019-01-13T05:22:04.486Z,7.00
2019-01-13T05:24:46.644Z,7.57
2019-01-13T05:27:28.741Z,7.60
2019-01-13T05:30:10.878Z,8.03
2019-01-13T05:32:53.130Z,8.70
2019-01-13T05:35:35.249Z,8.87
2019-01-13T05:38:17.198Z,8.20
2019-01-13T05:40:59.398Z,8.90
2019-01-13T05:43:41.650Z,8.40
2019-01-13T05:46:23.838Z,8.27
2019-01-13T05:49:05.939Z,9.43
2019-01-13T05:51:48.141Z,8.90
2019-01-13T05:54:30.375Z,9.10
2019-01-13T05:57:12.752Z,8.93
2019-01-13T05:59:54.681Z,8.30
2019-01-13T06:02:36.976Z,8.70
2019-01-13T06:05:21.697Z,8.67
2019-01-13T06:08:00.349Z,8.80
2019-01-13T06:10:42.369Z,8.60
2019-01-13T06:13:24.494Z,8.50
2019-01-13T06:16:06.577Z,8.13
2019-01-13T06:18:48.222Z,7.87
2019-01-13T06:21:30.360Z,7.20
2019-01-13T06:24:00.629Z,7.70
2019-01-13T06:26:49.993Z,7.17
2019-01-13T06:29:31.807Z,6.77
2019-01-13T06:32:14.094Z,5.87
2019-01-13T06:34:55.865Z,6.10
2019-01-13T06:37:38.011Z,6.30
2019-01-13T06:40:20.151Z,6.13
2019-01-13T06:43:02.281Z,5.60
2019-01-13T06:45:44.189Z,5.27
2019-01-13T06:48:26.422Z,4.83
2019-01-13T06:51:08.345Z,5.20
2019-01-13T06:53:50.291Z,4.40
2019-01-13T06:56:32.646Z,4.43
2019-01-13T06:59:15.951Z,4.30
2019-01-13T07:02:03.344Z,5.13
2019-01-13T07:04:41.968Z,4.40
2019-01-13T07:07:24.010Z,3.50
2019-01-13T07:10:06.073Z,3.87
2019-01-13T07:12:48.447Z,3.63
2019-01-13T07:15:30.552Z,4.13
2019-01-13T07:18:12.550Z,3.87
2019-01-13T07:20:42.841Z,3.63
2019-01-13T07:23:24.874Z,5.57
2019-01-13T07:26:06.666Z,4.03
2019-01-13T07:28:48.828Z,3.33
2019-01-13T07:31:31.001Z,3.30
2019-01-13T07:34:01.309Z,2.87
2019-01-13T07:36:42.804Z,4.00
2019-01-13T07:39:24.659Z,4.40
2019-01-13T07:42:06.777Z,3.30
2019-01-13T07:44:48.610Z,3.53
2019-01-13T07:47:18.890Z,2.83
2019-01-13T07:50:01.139Z,4.80
2019-01-13T07:52:43.124Z,3.80
2019-01-13T07:55:25.177Z,4.17
2019-01-13T07:58:07.385Z,3.50
2019-01-13T08:00:49.485Z,3.53
2019-01-13T08:03:31.698Z,3.33
2019-01-13T08:06:13.566Z,3.60
2019-01-13T08:08:55.510Z,2.90
2019-01-13T08:11:37.218Z,2.80
2019-01-13T08:14:19.173Z,2.80
2019-01-13T08:17:01.430Z,3.03
2019-01-13T08:19:41.867Z,2.90
2019-01-13T08:22:24.219Z,2.60
2019-01-13T08:25:06.370Z,2.97
2019-01-13T08:27:48.415Z,5.67
2019-01-13T08:30:30.192Z,5.20
2019-01-13T08:33:12.108Z,4.60
2019-01-13T08:35:53.955Z,2.30
2019-01-13T08:38:24.223Z,2.07
2019-01-13T08:41:06.186Z,2.40
2019-01-13T08:43:48.195Z,2.70
2019-01-13T08:46:30.039Z,2.27
2019-01-13T08:49:11.962Z,2.60
2019-01-13T08:51:42.231Z,2.50
2019-01-13T08:54:24.526Z,2.30
2019-01-13T08:57:06.487Z,2.90
2019-01-13T08:59:48.642Z,2.57
2019-01-13T09:02:32.272Z,3.30
2019-01-13T09:05:15.179Z,2.73
2019-01-13T09:07:57.006Z,3.07
2019-01-13T09:10:40.593Z,2.77
2019-01-13T09:13:23.088Z,2.50
2019-01-13T09:16:05.516Z,2.67
2019-01-13T09:18:47.797Z,2.53
2019-01-13T09:21:30.943Z,2.93
2019-01-13T09:24:12.909Z,3.00
2019-01-13T09:26:50.746Z,4.77
2019-01-13T09:29:53.932Z,4.83
2019-01-13T09:32:39.371Z,4.47
2019-01-13T09:35:07.005Z,3.70
2019-01-13T09:37:56.652Z,5.93
2019-01-13T09:40:38.636Z,5.50
2019-01-13T09:43:24.588Z,4.60
2019-01-13T09:46:06.997Z,4.97
2019-01-13T09:48:49.204Z,3.63
2019-01-13T09:51:31.012Z,2.83
2019-01-13T09:54:02.188Z,2.10
2019-01-13T09:56:45.413Z,2.13
2019-01-13T09:59:27.287Z,2.50
2019-01-13T10:02:09.398Z,2.20
2019-01-13T10:04:51.222Z,2.27
2019-01-13T10:07:35.289Z,2.10
2019-01-13T10:10:18.566Z,2.17
2019-01-13T10:13:05.006Z,1.67
2019-01-13T10:15:49.994Z,1.70
2019-01-13T10:18:38.015Z,1.80
2019-01-13T10:21:22.711Z,1.20
2019-01-13T10:24:14.958Z,1.20
2019-01-13T10:26:57.341Z,1.37
2019-01-13T10:29:42.261Z,2.07
2019-01-13T10:32:23.961Z,1.40
2019-01-13T10:35:08.302Z,1.43
2019-01-13T10:38:09.391Z,1.47
2019-01-13T10:40:54.242Z,1.37
2019-01-13T10:43:36.299Z,4.27
2019-01-13T10:46:18.465Z,2.90
2019-01-13T10:49:00.505Z,1.70
2019-01-13T10:51:43.703Z,1.67
2019-01-13T10:54:28.840Z,1.40
2019-01-13T10:57:13.125Z,1.67
2019-01-13T10:59:57.405Z,1.70
2019-01-13T11:02:42.007Z,1.50
2019-01-13T11:05:24.093Z,1.63
2019-01-13T11:08:11.702Z,1.60
2019-01-13T11:10:51.045Z,1.50
2019-01-13T11:13:36.178Z,1.33
2019-01-13T11:16:17.754Z,1.20
2019-01-13T11:19:00.158Z,1.20
2019-01-13T11:21:44.113Z,1.60
2019-01-13T11:24:26.549Z,1.40
2019-01-13T11:30:04.508Z,1.13
2019-01-13T11:32:46.807Z,1.30
2019-01-13T11:35:39.066Z,1.43
2019-01-13T11:39:06.394Z,1.50
2019-01-13T11:41:09.386Z,1.70
2019-01-13T11:43:51.454Z,1.97
2019-01-13T11:46:34.766Z,1.83
2019-01-13T11:49:16.574Z,1.80
2019-01-13T11:51:58.684Z,7.30
2019-01-13T11:54:40.715Z,11.33
2019-01-13T11:57:22.815Z,2.87
2019-01-13T12:00:04.850Z,4.53
2019-01-13T12:02:46.843Z,6.93
2019-01-13T12:05:28.894Z,2.03
2019-01-13T12:08:11.136Z,1.40
2019-01-13T12:10:51.492Z,1.50
2019-01-13T12:13:33.617Z,1.20
2019-01-13T12:16:15.623Z,1.17
2019-01-13T12:18:57.808Z,1.40
2019-01-13T12:21:39.681Z,1.13
2019-01-13T12:24:22.038Z,1.37
2019-01-13T12:27:04.387Z,1.87
2019-01-13T12:29:46.621Z,1.40
2019-01-13T12:32:29.026Z,1.90
2019-01-13T12:35:10.993Z,1.40
2019-01-13T12:37:53.023Z,1.33
2019-01-13T12:40:35.307Z,1.30
2019-01-13T12:43:17.430Z,1.50
2019-01-13T12:45:59.701Z,1.77
2019-01-13T12:48:41.809Z,1.30
2019-01-13T12:51:24.760Z,2.23
2019-01-13T12:54:06.715Z,1.27
2019-01-13T12:56:48.986Z,1.37
2019-01-13T12:59:30.921Z,1.00
2019-01-13T13:02:15.761Z,1.20
2019-01-13T13:04:46.425Z,1.77
2019-01-13T13:07:36.087Z,2.70
2019-01-13T13:10:18.811Z,1.80
2019-01-13T13:13:02.089Z,2.20
2019-01-13T13:15:43.810Z,1.93
2019-01-13T13:18:25.876Z,1.57
2019-01-13T13:21:08.021Z,2.00
2019-01-13T13:23:50.527Z,2.10
2019-01-13T13:26:33.046Z,2.20
2019-01-13T13:29:15.089Z,2.07
2019-01-13T13:31:57.128Z,1.53
2019-01-13T13:34:27.410Z,1.47
2019-01-13T13:36:57.798Z,1.80
2019-01-13T13:39:28.121Z,1.70
2019-01-13T13:42:04.155Z,1.93
2019-01-13T13:44:36.245Z,1.93
2019-01-13T13:47:08.271Z,1.90
2019-01-13T13:49:38.695Z,2.20
2019-01-13T13:52:09.567Z,2.00
2019-01-13T13:54:44.481Z,1.70
2019-01-13T13:57:17.118Z,1.70
2019-01-13T13:59:51.649Z,1.83
2019-01-13T14:02:23.495Z,3.00
2019-01-13T14:04:54.993Z,2.63
2019-01-13T14:07:32.145Z,2.30
2019-01-13T14:10:04.751Z,2.67
2019-01-13T14:12:35.077Z,2.70
2019-01-13T14:15:06.030Z,2.80
2019-01-13T14:17:36.819Z,2.40
2019-01-13T14:20:10.245Z,2.77
2019-01-13T14:22:43.572Z,3.30
2019-01-13T14:25:14.337Z,3.53
2019-01-13T14:27:45.237Z,2.60
2019-01-13T14:30:22.706Z,4.13
2019-01-13T14:33:02.285Z,3.03
2019-01-13T14:35:31.699Z,2.40
2019-01-13T14:38:07.031Z,1.83
2019-01-13T14:40:46.829Z,2.10
2019-01-13T14:43:20.106Z,3.97
2019-01-13T14:45:59.824Z,7.90
2019-01-13T14:48:40.245Z,2.53
2019-01-13T14:51:12.119Z,3.40
2019-01-13T14:53:45.551Z,2.43
2019-01-13T14:56:16.409Z,2.67
2019-01-13T14:58:48.377Z,3.23
2019-01-13T15:01:18.989Z,4.30
2019-01-13T15:03:59.924Z,2.30
2019-01-13T15:06:28.143Z,2.57
2019-01-13T15:08:59.420Z,1.80
2019-01-13T15:11:29.841Z,1.60
2019-01-13T15:14:02.716Z,1.40
2019-01-13T15:16:33.219Z,1.40
2019-01-13T15:19:05.651Z,1.30
2019-01-13T15:21:39.960Z,1.40
2019-01-13T15:24:22.026Z,1.53
2019-01-13T15:26:52.920Z,1.80
2019-01-13T15:29:34.797Z,3.67
2019-01-13T15:32:07.337Z,1.97
2019-01-13T15:34:48.691Z,1.40
2019-01-13T15:37:21.172Z,1.63
2019-01-13T15:39:52.855Z,1.40
2019-01-13T15:42:28.311Z,1.80
2019-01-13T15:44:59.968Z,2.20
2019-01-13T15:47:41.276Z,10.23
2019-01-13T15:50:27.651Z,1.90
2019-01-13T15:53:04.132Z,2.00
2019-01-13T15:55:39.405Z,2.20
2019-01-13T15:58:10.544Z,2.33
2019-01-13T16:00:42.177Z,2.30
2019-01-13T16:03:12.547Z,2.70
2019-01-13T16:05:43.127Z,2.63
2019-01-13T16:08:18.448Z,3.17
2019-01-13T16:10:48.986Z,8.90
2019-01-13T16:13:19.685Z,12.67
2019-01-13T16:15:50.035Z,8.07
2019-01-13T16:18:21.961Z,9.50
2019-01-13T16:20:52.645Z,4.23
2019-01-13T16:23:23.173Z,3.03
2019-01-13T16:25:54.035Z,1.70
2019-01-13T16:28:25.004Z,1.60
2019-01-13T16:30:55.918Z,1.27
2019-01-13T16:33:26.655Z,1.10
2019-01-13T16:35:56.943Z,1.33
2019-01-13T16:38:27.251Z,1.43
2019-01-13T16:40:58.882Z,1.30
2019-01-13T16:43:29.175Z,1.20
2019-01-13T16:46:00.631Z,2.60
2019-01-13T16:48:31.346Z,3.80
2019-01-13T16:51:02.241Z,1.87
2019-01-13T16:53:32.545Z,1.20
2019-01-13T16:56:04.510Z,1.43
2019-01-13T16:58:35.526Z,1.67
2019-01-13T17:01:06.433Z,1.20
2019-01-13T17:03:38.119Z,1.83
2019-01-13T17:06:10.833Z,1.50
2019-01-13T17:08:42.712Z,1.30
2019-01-13T17:11:13.961Z,0.80
2019-01-13T17:13:46.593Z,1.13
2019-01-13T17:16:18.034Z,0.80
2019-01-13T17:18:51.258Z,1.50
2019-01-13T17:21:23.790Z,1.30
2019-01-13T17:23:54.237Z,1.73
2019-01-13T17:26:24.601Z,1.00
2019-01-13T17:28:54.877Z,1.67
2019-01-13T17:31:25.269Z,1.77
2019-01-13T17:33:55.523Z,2.30
2019-01-13T17:36:25.829Z,2.20
2019-01-13T17:38:56.109Z,1.33
2019-01-13T17:41:26.866Z,1.27
2019-01-13T17:43:57.701Z,2.57
2019-01-13T17:46:28.050Z,1.60
2019-01-13T17:49:05.054Z,1.57
2019-01-13T17:51:35.382Z,2.23
2019-01-13T17:55:06.150Z,1.53
2019-01-13T17:59:45.978Z,1.20
2019-01-13T18:02:19.536Z,1.10
2019-01-13T18:04:58.290Z,2.20
2019-01-13T18:08:01.884Z,1.37
2019-01-13T18:10:35.968Z,1.90
2019-01-13T18:13:06.711Z,1.80
2019-01-13T18:15:38.245Z,2.03
2019-01-13T18:18:10.139Z,1.87
2019-01-13T18:20:42.630Z,1.70
2019-01-13T18:23:14.462Z,1.10
2019-01-13T18:25:45.136Z,1.17
2019-01-13T18:28:15.597Z,1.20
2019-01-13T18:30:45.885Z,2.30
2019-01-13T18:33:20.775Z,1.67
2019-01-13T18:35:55.248Z,2.30
2019-01-13T18:38:26.184Z,1.60
2019-01-13T18:40:57.233Z,1.80
2019-01-13T18:43:28.842Z,1.90
2019-01-13T18:46:00.980Z,1.80
2019-01-13T18:48:32.089Z,1.90
2019-01-13T18:51:02.361Z,1.60
2019-01-13T18:53:32.727Z,2.47
2019-01-13T18:56:02.980Z,1.83
2019-01-13T18:58:33.288Z,1.93
2019-01-13T19:01:04.658Z,2.93
2019-01-13T19:03:38.259Z,2.10
2019-01-13T19:06:08.622Z,1.77
2019-01-13T19:08:40.677Z,2.20
2019-01-13T19:11:35.930Z,1.90
2019-01-13T19:14:19.455Z,2.43
2019-01-13T19:17:00.314Z,2.40
2019-01-13T19:19:42.204Z,2.50
2019-01-13T19:22:14.986Z,2.77
2019-01-13T19:24:45.796Z,2.10
2019-01-13T19:27:16.452Z,2.07
2019-01-13T19:29:47.349Z,2.03
2019-01-13T19:32:17.891Z,2.20
2019-01-13T19:34:48.341Z,2.30
2019-01-13T19:37:19.696Z,2.13
2019-01-13T19:39:51.213Z,2.50
2019-01-13T19:42:24.339Z,2.20
2019-01-13T19:44:55.212Z,2.40
2019-01-13T19:47:25.673Z,2.33
2019-01-13T19:49:56.868Z,2.67
2019-01-13T19:52:27.977Z,2.30
2019-01-13T19:58:41.811Z,2.60
2019-01-13T20:01:12.557Z,2.90
2019-01-13T20:03:56.487Z,2.70
2019-01-13T20:06:50.276Z,2.80
2019-01-13T20:09:36.957Z,2.63
2019-01-13T20:12:12.434Z,2.73
2019-01-13T20:14:56.942Z,2.60
2019-01-13T20:17:26.743Z,2.70
2019-01-13T20:20:04.823Z,2.40
2019-01-13T20:22:36.182Z,2.40
2019-01-13T20:25:08.939Z,3.00
2019-01-13T20:27:41.084Z,3.13
2019-01-13T20:30:17.963Z,2.63
2019-01-13T20:32:57.788Z,3.43
2019-01-13T20:35:31.617Z,3.67
2019-01-13T20:38:06.113Z,2.70
2019-01-13T20:40:39.463Z,2.63
2019-01-13T20:43:19.649Z,2.90
2019-01-13T20:45:53.960Z,2.67
2019-01-13T20:48:27.556Z,2.03
2019-01-13T20:50:58.421Z,1.70
2019-01-13T20:53:29.455Z,1.40
2019-01-13T20:56:00.387Z,1.50
2019-01-13T20:58:31.758Z,1.93
2019-01-13T21:01:02.561Z,1.80
2019-01-13T21:03:34.195Z,1.80
2019-01-13T21:06:05.116Z,1.97
2019-01-13T21:08:38.470Z,1.80
2019-01-13T21:11:09.200Z,2.00
2019-01-13T21:13:40.809Z,2.00
2019-01-13T21:16:11.544Z,2.10
2019-01-13T21:18:41.876Z,2.10
2019-01-13T21:21:14.192Z,2.00
2019-01-13T21:23:45.483Z,3.27
2019-01-13T21:26:15.824Z,3.80
2019-01-13T21:28:46.395Z,2.77
2019-01-13T21:31:19.206Z,2.00
2019-01-13T21:33:49.813Z,1.00
2019-01-13T21:36:20.699Z,1.07
2019-01-13T21:38:51.105Z,1.13
2019-01-13T21:41:26.704Z,0.80
2019-01-13T21:43:58.333Z,0.90
2019-01-13T21:46:29.600Z,0.80
2019-01-13T21:49:00.186Z,1.00
2019-01-13T21:51:36.405Z,1.07
2019-01-13T21:54:11.008Z,0.70
